Tiempo atmosférico en la estación meteorológica de Torremolinos, Málaga (85 m.)



Fecha
DESCASC
Temp. máxima en grados centígrados (hora)
DESCASC
Temp. mínima en grados centígrados (hora)
DESCASC
Temp. media en grados centígrados
DESCASC
Racha de viento máxima en m/sg (hora)
DESCASC
Velocidad máxima media en intervalos de 10 minutos(hora)
DESCASC
Precipitaciones diarias en mm
DESCASC
Precipitaciones de 00:00 a 06:00 en mm
DESCASC
Precipitaciones de 06:00 a 12:00 en mm
DESCASC
Precipitaciones de 12:00 a 18:00 en mm
DESCASC
Precipitaciones de 18:00 a 24:00 en mm
DESCASC
17-02-2019 16.5 (14:30) 11 (07:50) 13.8 5.28 (12:50) 2.78 (13:20) 0 0 0 0 0
16-02-2019 16.1 (12:30) 11.2 (07:50) 13.7 8.89 (12:40) 3.61 (12:40) 0 0 0 0 0
15-02-2019 15.1 (15:20) 13.1 (08:20) 14.1 6.67 (16:10) 3.89 (16:00) 0 0 0 0 0
14-02-2019 15.7 (12:40) 12.5 (00:00) 14.1 6.67 (14:30) 3.61 (14:30) 0 0 0 0 0
13-02-2019 15.5 (14:10) 10.1 (00:00) 12.8 6.39 (01:50) 3.33 (13:30) 0 0 0 0 0
12-02-2019 14.5 (12:00) 12.2 (00:00) 13.3 8.89 (15:20) 3.89 (13:30) 0 0 0 0 0
11-02-2019 21.7 (13:20) 12.7 (00:00) 17.2 15.28 (04:20) 7.22 (04:50) 0 0 0 0 0
10-02-2019 19.4 (14:30) 8.2 (00:00) 13.8 15 (11:10) 6.39 (23:59) 0 0 0 0 0
09-02-2019 18.3 (15:20) 8 (00:00) 13.1 4.44 (14:40) 3.06 (21:40) 0 0 0 0 0
08-02-2019 17.3 (00:30) 9.3 (00:00) 13.3 9.44 (00:10) 3.61 (00:10) 0 0 0 0 0
07-02-2019 24.1 (15:30) 9.5 (00:00) 16.8 12.5 (22:50) 5 (22:50) 0 0 0 0 0
06-02-2019 19 (16:50) 7.5 (00:00) 13.3 3.61 (14:20) 1.67 (18:20) 0 0 0 0 0
05-02-2019 16.6 (14:50) 7.1 (00:00) 11.9 5.28 (17:10) 3.33 (17:10) 0 0 0 0 0
04-02-2019 15.7 (16:50) 8 (00:00) 11.8 13.33 (01:20) 5.28 (01:00) 0 0 0 0 0
03-02-2019 15.8 (15:20) 6.7 (00:00) 11.3 14.17 (21:20) 5.28 (21:10) 0 0 0 0 0
02-02-2019 15.6 (15:40) 10.1 (00:00) 12.9 10.56 (14:00) 3.61 (12:20) 0 0 0 0 0
01-02-2019 18.2 (15:20) 9.4 (00:00) 13.8 12.78 (06:00) 3.89 (08:50) 22.2 9.6 11.8 0.2 0.6
31-01-2019 18.8 (16:20) 11.6 (00:00) 15.2 12.22 (21:30) 3.89 (23:59) 0 0 0 0 0
30-01-2019 18.7 (14:30) 12.8 (00:00) 15.8 8.89 (14:00) 2.78 (18:50) 0 0 0 0 0
29-01-2019 18.9 (14:00) 12 (00:00) 15.4 11.39 (10:20) 3.61 (09:00) 0 0 0 0 0
28-01-2019 18.1 (16:00) 10.7 (00:00) 14.4 13.33 (01:20) 5.83 (03:10) 0 0 0 0 0
27-01-2019 20.9 (14:10) 11.8 (00:00) 16.3 10.56 (17:50) 4.17 (03:00) 0 0 0 0 0
26-01-2019 19.1 (13:00) 10.1 (00:00) 14.6 8.61 (00:20) 3.89 (00:30) 0 0 0 0 0
25-01-2019 23.2 (15:00) 15.1 (00:00) 19.2 13.89 (00:30) 6.11 (00:40) 0 0 0 0 0
24-01-2019 20 (15:50) 14.4 (00:00) 17.2 13.61 (13:40) 6.39 (13:30) 0 0 0 0 0
23-01-2019 16.2 (14:40) 11.2 (00:00) 13.7 8.89 (05:50) 2.5 (09:50) 0 0 0 0 0
22-01-2019 17.6 (15:10) 9.6 (00:00) 13.6 8.89 (15:50) 3.89 (03:00) 0 0 0 0 0
21-01-2019 18.2 (14:10) 9.6 (00:00) 13.9 10 (08:20) 4.17 (05:00) 0 0 0 0 0
20-01-2019 17 (15:30) 10.7 (00:00) 13.8 10.28 (16:30) 3.89 (16:30) 2 1.6 0.4 0 0
19-01-2019 15 (13:10) 10.2 (00:00) 12.6 8.33 (12:10) 3.61 (12:10) 0.2 0 0 0 0.2

Gráficas

Temp. máximas Temp. mínimas Temp. medias Precipitaciones Rachas de viento máximas Velocidades máximas media en intervalos de 10 minutos

Datos horarios

Fecha y hora oficial Temperatura (ºC) Velocidad del viento (km/h) Dirección del viento Racha (km/h) Dirección de racha Precipitación (mm) Presión (hPa) Tendencia (hPa) Humedad (%)
2019-02-17 23:00:00 11.6 0 Calma 3 Sudoeste 0 -- -- 89
2019-02-17 22:00:00 12 0 Calma 4 Oeste 0 -- -- 88
2019-02-17 21:00:00 12 0 Calma 5 Oeste 0 -- -- 85
2019-02-17 20:00:00 12.4 0 Calma 5 Sur 0 -- -- 82
2019-02-17 19:00:00 13.7 0 Calma 12 Sur 0 -- -- 77
2019-02-17 18:00:00 14.5 4 Sur 15 Sudeste 0 -- -- 73
2019-02-17 17:00:00 15.4 8 Sudeste 16 Sudeste 0 -- -- 68
2019-02-17 16:00:00 15.7 5 Sur 17 Sudeste 0 -- -- 66
2019-02-17 15:00:00 15.4 6 Sudeste 16 Sudeste 0 -- -- 69
2019-02-17 14:00:00 16.2 8 Sudeste 19 Sudeste 0 -- -- 66
2019-02-17 13:00:00 16.2 10 Sudeste 19 Sur 0 -- -- 65
2019-02-17 12:00:00 15.1 7 Este 16 Sudeste 0 -- -- 68
2019-02-17 11:00:00 14.5 9 Este 17 Sudeste 0 -- -- 69
2019-02-17 10:00:00 14.1 7 Sudeste 15 Sudeste 0 -- -- 71
2019-02-17 09:00:00 12.8 5 Sudeste 12 Sur 0 -- -- 82
2019-02-17 08:00:00 11.1 0 Calma 4 Sur 0 -- -- 88
2019-02-17 07:00:00 11.5 0 Calma 5 Sudoeste 0 -- -- 87
2019-02-17 06:00:00 11.6 2 Oeste 10 Sur 0 -- -- 83
2019-02-17 05:00:00 12.7 3 Sudoeste 9 Oeste 0 -- -- 79
2019-02-17 04:00:00 13.1 4 Sudoeste 10 Sur 0 -- -- 77
2019-02-17 03:00:00 13.3 3 Sudoeste 10 Sur 0 -- -- 76
2019-02-17 02:00:00 13.3 3 Sudoeste 8 Sur 0 -- -- 81
2019-02-17 01:00:00 13.6 2 Sudoeste 10 Sudeste 0 -- -- 81
2019-02-17 00:00:00 13.7 3 Sudoeste 13 Sur 0 -- -- 80
2019-02-16 23:00:00 13.9 6 Sudeste 16 Este 0 -- -- 79
2019-02-16 22:00:00 13.7 4 Sur 17 Sur 0 -- -- 78
2019-02-16 21:00:00 13.6 4 Sur 13 Sur 0 -- -- 78
2019-02-16 20:00:00 13.8 3 Sur 14 Este 0 -- -- 77
2019-02-16 19:00:00 14.3 6 Sudeste 14 Sudeste 0 -- -- 75
2019-02-16 18:00:00 14.9 5 Sudeste 13 Sudeste 0 -- -- 72
2019-02-16 17:00:00 15.4 7 Sudeste 19 Sudeste 0 -- -- 69
2019-02-16 16:00:00 14.9 7 Sudeste 17 Sudeste 0 -- -- 72
2019-02-16 15:00:00 15.4 9 Sudeste 20 Sur 0 -- -- 68
2019-02-16 14:00:00 15.8 9 Sur 22 Sur 0 -- -- 67
2019-02-16 13:00:00 15.5 9 Sur 32 Sudeste 0 -- -- 67
2019-02-16 12:00:00 15.6 10 Sur 26 Sudeste 0 -- -- 67
2019-02-16 11:00:00 14.9 5 Sudoeste 16 Oeste 0 -- -- 68
2019-02-16 10:00:00 14.1 6 Oeste 19 Sudoeste 0 -- -- 73
2019-02-16 09:00:00 12.4 3 Oeste 9 Oeste 0 -- -- 78
2019-02-16 08:00:00 11.2 3 Oeste 8 Sudoeste 0 -- -- 79
2019-02-16 07:00:00 12.1 0 Calma 11 Oeste 0 -- -- 75
2019-02-16 06:00:00 12.3 4 Oeste 13 Noroeste 0 -- -- 81
2019-02-16 05:00:00 12.7 6 Oeste 13 Oeste 0 -- -- 82
2019-02-16 04:00:00 13.2 4 Sudoeste 12 Sudoeste 0 -- -- 82
2019-02-16 03:00:00 13.3 3 Sudoeste 11 Sur 0 -- -- 82
2019-02-16 02:00:00 13.4 3 Sur 10 Sudeste 0 -- -- 84
2019-02-16 01:00:00 13.4 2 Sudoeste 16 Sudoeste 0 -- -- 83
2019-02-16 00:00:00 13.8 4 Sudoeste 14 Sur 0 -- -- 82
2019-02-15 23:00:00 13.6 2 Sur 11 Sur 0 -- -- 81
2019-02-15 22:00:00 13.5 2 Sudeste 8 Sudeste 0 -- -- 80
2019-02-15 21:00:00 13.7 5 Sudeste 11 Sudeste 0 -- -- 77
2019-02-15 20:00:00 14 6 Sudeste 15 Sudeste 0 -- -- 75
2019-02-15 19:00:00 14 6 Sudeste 17 Este 0 -- -- 73
2019-02-15 18:00:00 14.1 7 Sudeste 17 Sudeste 0 -- -- 73
2019-02-15 17:00:00 14.6 10 Sudeste 24 Sudeste 0 -- -- 72
2019-02-15 16:00:00 14.8 14 Sudeste 23 Sudeste 0 -- -- 70
2019-02-15 15:00:00 14.9 11 Sudeste 21 Este 0 -- -- 68
2019-02-15 14:00:00 14.4 9 Sudeste 18 Sudeste 0 -- -- 72
2019-02-15 13:00:00 13.7 8 Sudeste 17 Sudeste 0 -- -- 75
2019-02-15 12:00:00 13.5 9 Sudeste 18 Sur 0 -- -- 73
2019-02-15 11:00:00 13.5 8 Este 16 Este 0 -- -- 76
2019-02-15 10:00:00 13.4 8 Este 17 Este 0 -- -- 76
2019-02-15 09:00:00 13.3 6 Este 16 Sudeste 0 -- -- 72
2019-02-15 08:00:00 13.4 5 Este 19 Sudeste 0 -- -- 74
2019-02-15 07:00:00 13.4 8 Sudeste 20 Sudeste 0 -- -- 74
2019-02-15 06:00:00 13.5 6 Sudeste 14 Sur 0 -- -- 75
2019-02-15 05:00:00 13.4 5 Sudeste 16 Sudeste 0 -- -- 76
2019-02-15 04:00:00 13.5 6 Sudeste 18 Sudeste 0 -- -- 77
2019-02-15 03:00:00 13.5 5 Sudeste 16 Sudeste 0 -- -- 78
2019-02-15 02:00:00 13.6 6 Sudeste 15 Este 0 -- -- 79
2019-02-15 01:00:00 13.7 5 Sur 16 Sudeste 0 -- -- 79
2019-02-15 00:00:00 13.6 3 Sur 11 Sudeste 0 -- -- 77
2019-02-14 23:00:00 13.6 3 Sudeste 12 Sudeste 0 -- -- 76
2019-02-14 22:00:00 13.5 5 Sudeste 12 Este 0 -- -- 77
2019-02-14 21:00:00 13.3 6 Sudeste 11 Sudeste 0 -- -- 77
2019-02-14 20:00:00 13.2 3 Sur 12 Sudeste 0 -- -- 75
2019-02-14 19:00:00 13.4 5 Sudeste 16 Sudeste 0 -- -- 72
2019-02-14 18:00:00 14 9 Sudeste 21 Sudeste 0 -- -- 69
2019-02-14 17:00:00 14.6 9 Sudeste 19 Sudeste 0 -- -- 68
2019-02-14 16:00:00 14.7 10 Sudeste 20 Sudeste 0 -- -- 68
2019-02-14 15:00:00 15.2 10 Sudeste 24 Sudeste 0 -- -- 63
2019-02-14 14:00:00 15.5 12 Sudeste 23 Sudeste 0 -- -- 59
2019-02-14 13:00:00 14.9 12 Sudeste 23 Sudeste 0 -- -- 61
2019-02-14 12:00:00 14.9 10 Sudeste 22 Sur 0 -- -- 64
2019-02-14 11:00:00 13.3 3 Sudoeste 9 Este 0 -- -- 70
2019-02-14 10:00:00 13 3 Este 10 Este 0 -- -- 70
2019-02-14 09:00:00 12.6 5 Este 14 Nordeste 0 -- -- 74
2019-02-14 08:00:00 12.5 7 Sudeste 18 Este 0 -- -- 75
2019-02-14 07:00:00 12.5 5 Sudeste 20 Sudeste 0 -- -- 73
2019-02-14 06:00:00 12.7 6 Sudeste 21 Sudeste 0 -- -- 76
2019-02-14 05:00:00 12.7 11 Sudeste 22 Sudeste 0 -- -- 74
2019-02-14 04:00:00 12.9 6 Sudeste 17 Sudeste 0 -- -- 74
2019-02-14 03:00:00 12.9 7 Sudeste 17 Sudeste 0 -- -- 75
2019-02-14 02:00:00 13 6 Sudeste 14 Sudeste 0 -- -- 78
2019-02-14 01:00:00 13.1 3 Sudeste 13 Sur 0 -- -- 77
2019-02-14 00:00:00 13.2 6 Sudeste 15 Sudeste 0 -- -- 78
2019-02-13 23:00:00 12.8 5 Sudeste 12 Sudeste 0 -- -- 80
2019-02-13 22:00:00 11.7 0 Calma 5 Sudeste 0 -- -- 86
2019-02-13 21:00:00 11.7 0 Calma 4 Sudeste 0 -- -- 84
2019-02-13 20:00:00 12.4 0 Calma 6 Sudeste 0 -- -- 81
2019-02-13 19:00:00 13.2 3 Sur 12 Sudeste 0 -- -- 76
2019-02-13 18:00:00 14 5 Sudeste 13 Sudeste 0 -- -- 68
2019-02-13 17:00:00 14.9 6 Sudeste 16 Sudeste 0 -- -- 66
2019-02-13 16:00:00 14.6 9 Sudeste 19 Sudeste 0 -- -- 69
2019-02-13 15:00:00 14.9 8 Sudeste 19 Sudeste 0 -- -- 68
2019-02-13 14:00:00 15.2 10 Sudeste 22 Sudeste 0 -- -- 64
2019-02-13 13:00:00 15.2 8 Sudeste 19 Sudeste 0 -- -- 66
2019-02-13 12:00:00 15.2 7 Sudeste 16 Sudeste 0 -- -- 63
2019-02-13 11:00:00 14.9 4 Este 14 Sudeste 0 -- -- 60
2019-02-13 10:00:00 13.9 2 Sudeste 6 Sur 0 -- -- 62
2019-02-13 09:00:00 11.1 0 Calma 5 Nordeste 0 -- -- 81
2019-02-13 08:00:00 10.3 0 Calma 4 Nordeste 0 -- -- 80
2019-02-13 07:00:00 11.3 0 Calma 5 Noroeste 0 -- -- 77
2019-02-13 06:00:00 12.2 0 Calma 7 Nordeste 0 -- -- 75
2019-02-13 05:00:00 12.7 4 Este 13 Este 0 -- -- 77
2019-02-13 04:00:00 12.9 3 Sudeste 10 Sudeste 0 -- -- 78
2019-02-13 03:00:00 13.1 4 Nordeste 21 Sudeste 0 -- -- 78
2019-02-13 02:00:00 13.3 10 Sudeste 23 Sudeste 0 -- -- 78
2019-02-13 01:00:00 13.4 8 Este 22 Este 0 -- -- 79
2019-02-13 00:00:00 13.3 8 Este 19 Sudeste 0 -- -- 80
2019-02-12 23:00:00 12.3 5 Nordeste 17 Sudeste 0 -- -- 84
2019-02-12 22:00:00 12.4 3 Norte 9 Nordeste 0 -- -- 84
2019-02-12 21:00:00 12.8 3 Nordeste 9 Nordeste 0 -- -- 82
2019-02-12 20:00:00 13.1 3 Nordeste 15 Nordeste 0 -- -- 78
2019-02-12 19:00:00 13.5 6 Este 17 Este 0 -- -- 77
2019-02-12 18:00:00 14.1 8 Sudeste 23 Sudeste 0 -- -- 74
2019-02-12 17:00:00 14.3 13 Sudeste 22 Este 0 -- -- 72
2019-02-12 16:00:00 14.2 12 Sudeste 32 Sudeste 0 -- -- 72
2019-02-12 15:00:00 14.2 11 Sudeste 26 Sudeste 0 -- -- 71
2019-02-12 14:00:00 14.2 13 Sudeste 28 Sudeste 0 -- -- 74
2019-02-12 13:00:00 14.3 14 Sudeste 26 Este 0 -- -- 75
2019-02-12 12:00:00 14.5 10 Sudeste 25 Sudeste 0 -- -- 76
2019-02-12 11:00:00 14.1 5 Este 20 Sudeste 0 -- -- 78
2019-02-12 10:00:00 14 5 Este 15 Este 0 -- -- 84
2019-02-12 09:00:00 13.9 5 Este 12 Este 0 -- -- 86
2019-02-12 08:00:00 13.9 4 Este 24 Sudeste 0 -- -- 88
2019-02-12 07:00:00 14.1 6 Sudeste 15 Este 0 -- -- 87
2019-02-12 06:00:00 14 2 Nordeste 10 Nordeste 0 -- -- 87
2019-02-12 05:00:00 13.8 2 Nordeste 9 Sur 0 -- -- 84
2019-02-12 04:00:00 13.4 2 Nordeste 11 Nordeste 0 -- -- 78
2019-02-12 03:00:00 12.7 2 Nordeste 4 Nordeste 0 -- -- 70
2019-02-12 02:00:00 12.7 0 Calma 3 Sudoeste 0 -- -- 66
2019-02-12 01:00:00 12.9 0 Calma 3 Oeste 0 -- -- 66
2019-02-12 00:00:00 12.8 0 Calma 3 Noroeste 0 -- -- 68
2019-02-11 23:00:00 12.9 0 Calma 4 Noroeste 0 -- -- 72
2019-02-11 22:00:00 12.8 0 Calma 3 Noroeste 0 -- -- 76
2019-02-11 21:00:00 13.5 0 Calma 5 Noroeste 0 -- -- 83
2019-02-11 20:00:00 14.3 0 Calma 4 Nordeste 0 -- -- 79
2019-02-11 19:00:00 15.6 2 Oeste 6 Sudoeste 0 -- -- 67
2019-02-11 18:00:00 17.6 3 Sur 10 Sur 0 -- -- 60
2019-02-11 17:00:00 19.4 6 Sur 15 Sur 0 -- -- 51
2019-02-11 16:00:00 20 6 Sudoeste 19 Sur 0 -- -- 50
2019-02-11 15:00:00 20.2 8 Sur 17 Sudoeste 0 -- -- 51
2019-02-11 14:00:00 20 8 Sudoeste 18 Sudeste 0 -- -- 51
2019-02-11 13:00:00 21.2 7 Norte 27 Norte 0 -- -- 41
2019-02-11 12:00:00 20 6 Norte 27 Norte 0 -- -- 50
2019-02-11 11:00:00 18.7 8 Norte 29 Norte 0 -- -- 53
2019-02-11 10:00:00 17 6 Norte 25 Norte 0 -- -- 64
2019-02-11 09:00:00 15.2 10 Norte 46 Norte 0 -- -- 72
2019-02-11 08:00:00 14.5 17 Noroeste 49 Norte 0 -- -- 72
2019-02-11 07:00:00 14.8 18 Noroeste 48 Norte 0 -- -- 70
2019-02-11 06:00:00 15.3 14 Norte 48 Norte 0 -- -- 65
2019-02-11 05:00:00 15.5 20 Noroeste 55 Norte 0 -- -- 61
2019-02-11 04:00:00 15.5 16 Norte 45 Norte 0 -- -- 58
2019-02-11 03:00:00 15.5 14 Norte 50 Noroeste 0 -- -- 57
2019-02-11 02:00:00 15.6 18 Norte 47 Norte 0 -- -- 56
2019-02-11 01:00:00 15.3 19 Noroeste 54 Noroeste 0 -- -- 57
2019-02-11 00:00:00 15 23 Norte 49 Noroeste 0 -- -- 58
2019-02-10 23:00:00 15.1 12 Norte 48 Norte 0 -- -- 56
2019-02-10 22:00:00 15.1 16 Norte 52 Norte 0 -- -- 55
2019-02-10 21:00:00 15.6 17 Norte 46 Norte 0 -- -- 51
2019-02-10 20:00:00 15.7 11 Norte 42 Norte 0 -- -- 51
2019-02-10 19:00:00 15.9 8 Norte 30 Norte 0 -- -- 52
2019-02-10 18:00:00 16.5 9 Norte 36 Nordeste 0 -- -- 50
2019-02-10 17:00:00 17.8 9 Norte 42 Noroeste 0 -- -- 48
2019-02-10 16:00:00 18.4 9 Norte 35 Noroeste 0 -- -- 48
2019-02-10 15:00:00 18.8 10 Norte 50 Norte 0 -- -- 46
2019-02-10 14:00:00 18.8 18 Norte 49 Noroeste 0 -- -- 46
2019-02-10 13:00:00 17.7 16 Norte 53 Norte 0 -- -- 48
2019-02-10 12:00:00 16.8 11 Norte 54 Norte 0 -- -- 50
2019-02-10 11:00:00 15.6 19 Norte 46 Noroeste 0 -- -- 54
2019-02-10 10:00:00 13.7 20 Noroeste 44 Nordeste 0 -- -- 59
2019-02-10 09:00:00 12.6 20 Noroeste 45 Oeste 0 -- -- 63
2019-02-10 08:00:00 12 15 Noroeste 39 Norte 0 -- -- 65
2019-02-10 07:00:00 11.7 13 Noroeste 31 Norte 0 -- -- 71
2019-02-10 06:00:00 8.4 0 Calma 4 Sudoeste 0 -- -- 85
2019-02-10 05:00:00 8.5 0 Calma 6 Oeste 0 -- -- 83
2019-02-10 04:00:00 8.7 0 Calma 3 Sudoeste 0 -- -- 83
2019-02-10 03:00:00 9.3 0 Calma 3 Este 0 -- -- 82
2019-02-10 02:00:00 9.4 0 Calma 3 Sudoeste 0 -- -- 82
2019-02-10 01:00:00 10.1 0 Calma 3 Oeste 0 -- -- 83
2019-02-10 00:00:00 10.3 0 Calma 2 Sudoeste 0 -- -- 83
2019-02-09 23:00:00 10.8 0 Calma 9 Oeste 0 -- -- 77
2019-02-09 22:00:00 12 6 Oeste 14 Oeste 0 -- -- 81
2019-02-09 21:00:00 11.4 0 Calma 2 Noroeste 0 -- -- 85
2019-02-09 20:00:00 12 0 Calma 3 Noroeste 0 -- -- 82
2019-02-09 19:00:00 13.1 0 Calma 6 Sur 0 -- -- 75
2019-02-09 18:00:00 15.7 2 Sur 10 Sudoeste 0 -- -- 62
2019-02-09 17:00:00 17.9 4 Sur 11 Sur 0 -- -- 54
2019-02-09 16:00:00 17.9 5 Sur 14 Sur 0 -- -- 51
2019-02-09 15:00:00 18.1 6 Sudoeste 16 Oeste 0 -- -- 65
2019-02-09 14:00:00 17.9 6 Sudoeste 15 Sudeste 0 -- -- 65
2019-02-09 13:00:00 17.4 6 Sur 14 Sudeste 0 -- -- 66
2019-02-09 12:00:00 16.3 4 Sudeste 10 Sudeste 0 -- -- 70
2019-02-09 11:00:00 15.1 4 Sudeste 9 Sudeste 0 -- -- 81
2019-02-09 10:00:00 12.9 2 Este 4 Este 0 -- -- 96
2019-02-09 09:00:00 8.9 0 Calma 3 Sudoeste 0 -- -- 96
2019-02-09 08:00:00 8 0 Calma 3 Noroeste 0 -- -- 96
2019-02-09 07:00:00 8.4 0 Calma 3 Sudoeste 0 -- -- 96
2019-02-09 06:00:00 8.9 0 Calma 4 Noroeste 0 -- -- 95
2019-02-09 05:00:00 9.2 0 Calma 6 Noroeste 0 -- -- 95
2019-02-09 04:00:00 10 0 Calma 10 Sudoeste 0 -- -- 94
2019-02-09 03:00:00 9.8 0 Calma 8 Sudoeste 0 -- -- 93
2019-02-09 02:00:00 10.1 0 Calma 8 Sudoeste 0 -- -- 91
2019-02-09 01:00:00 10.6 0 Calma 7 Sudoeste 0 -- -- 88
2019-02-09 00:00:00 10.5 3 Oeste 9 Sudoeste 0 -- -- 87
2019-02-08 23:00:00 10.4 0 Calma 4 Sudoeste 0 -- -- 81
2019-02-08 22:00:00 10.1 0 Calma 3 Oeste 0 -- -- 82
2019-02-08 21:00:00 10.7 0 Calma 8 Sudoeste 0 -- -- 82
2019-02-08 20:00:00 11.9 3 Oeste 7 Oeste 0 -- -- 79
2019-02-08 19:00:00 12.7 0 Calma 4 Sudoeste 0 -- -- 83
2019-02-08 18:00:00 14.5 0 Calma 7 Sudeste 0 -- -- 76
2019-02-08 17:00:00 15.9 4 Sudeste 10 Sudeste 0 -- -- 68
2019-02-08 16:00:00 16.3 5 Sur 13 Sudeste 0 -- -- 68
2019-02-08 15:00:00 16.5 6 Sur 12 Sudeste 0 -- -- 67
2019-02-08 14:00:00 16.7 6 Sudeste 15 Sudeste 0 -- -- 61
2019-02-08 13:00:00 15.8 7 Sudeste 12 Sudeste 0 -- -- 62
2019-02-08 12:00:00 16 4 Sudeste 12 Sudeste 0 -- -- 55
2019-02-08 11:00:00 15.8 2 Sudeste 9 Oeste 0 -- -- 63
2019-02-08 10:00:00 13.8 5 Sudoeste 12 Sudoeste 0 -- -- 65
2019-02-08 09:00:00 12.9 3 Oeste 8 Oeste 0 -- -- 58
2019-02-08 08:00:00 12.3 2 Oeste 9 Oeste 0 -- -- 57
2019-02-08 07:00:00 12 4 Oeste 11 Oeste 0 -- -- 58
2019-02-08 06:00:00 9.5 0 Calma 4 Norte 0 -- -- 68
2019-02-08 05:00:00 9.8 0 Calma 4 Noroeste 0 -- -- 63
2019-02-08 04:00:00 10.2 0 Calma 5 Noroeste 0 -- -- 61
2019-02-08 03:00:00 11.1 0 Calma 7 Este 0 -- -- 58
2019-02-08 02:00:00 14.7 3 Sudoeste 17 Nordeste 0 -- -- 49
2019-02-08 01:00:00 17.2 5 Oeste 34 Noroeste 0 -- -- 36
2019-02-08 00:00:00 17.2 14 Noroeste 40 Noroeste 0 -- -- 38
2019-02-07 23:00:00 17.5 17 Noroeste 45 Noroeste 0 -- -- 36
2019-02-07 22:00:00 17.8 17 Noroeste 44 Noroeste 0 -- -- 37
2019-02-07 21:00:00 18.2 17 Noroeste 39 Norte 0 -- -- 35
2019-02-07 20:00:00 18.4 17 Noroeste 35 Norte 0 -- -- 36
2019-02-07 19:00:00 19.2 10 Norte 33 Norte 0 -- -- 36
2019-02-07 18:00:00 20.6 6 Norte 30 Noroeste 0 -- -- 30
2019-02-07 17:00:00 23.3 10 Noroeste 33 Norte 0 -- -- 26
2019-02-07 16:00:00 23.7 11 Norte 30 Noroeste 0 -- -- 26
2019-02-07 15:00:00 23.7 5 Norte 24 Noroeste 0 -- -- 29
2019-02-07 14:00:00 22.8 6 Norte 32 Noroeste 0 -- -- 34
2019-02-07 13:00:00 21.6 13 Norte 31 Noroeste 0 -- -- 34
2019-02-07 12:00:00 20.7 7 Norte 27 Nordeste 0 -- -- 37
2019-02-07 11:00:00 17.7 6 Norte 21 Nordeste 0 -- -- 48
2019-02-07 10:00:00 15.2 4 Sudeste 11 Sudeste 0 -- -- 77
2019-02-07 09:00:00 13.6 2 Nordeste 18 Norte 0 -- -- 78
2019-02-07 08:00:00 16 6 Noroeste 33 Norte 0 -- -- 47
2019-02-07 07:00:00 16.1 14 Noroeste 32 Noroeste 0 -- -- 47
2019-02-07 06:00:00 15.7 5 Oeste 31 Norte 0 -- -- 47
2019-02-07 05:00:00 13.1 5 Noroeste 18 Norte 0 -- -- 55
2019-02-07 04:00:00 13.5 5 Sudoeste 16 Noroeste 0 -- -- 50
2019-02-07 03:00:00 11.9 5 Sudoeste 15 Sudoeste 0 -- -- 56
2019-02-07 02:00:00 10.4 4 Sur 11 Sudoeste 0 -- -- 53
2019-02-07 01:00:00 9.8 0 Calma 4 Sudoeste 0 -- -- 45
2019-02-07 00:00:00 10.9 0 Calma 5 Oeste 0 -- -- 42
2019-02-06 23:00:00 11.5 2 Oeste 4 Sudoeste 0 -- -- 36
2019-02-06 22:00:00 10.3 0 Calma 3 Noroeste 0 -- -- 47
2019-02-06 21:00:00 10.1 0 Calma 2 Sudoeste 0 -- -- 43
2019-02-06 20:00:00 10.7 0 Calma 2 Sudoeste 0 -- -- 53
2019-02-06 19:00:00 13.3 0 Calma 10 Oeste 0 -- -- 50
2019-02-06 18:00:00 15.1 3 Sudoeste 6 Sur 0 -- -- 55
2019-02-06 17:00:00 18.8 3 Sur 9 Sur 0 -- -- 39
2019-02-06 16:00:00 18.5 5 Sur 11 Sudeste 0 -- -- 42
2019-02-06 15:00:00 18.3 5 Sur 13 Sur 0 -- -- 34
2019-02-06 14:00:00 18.4 5 Sur 12 Sudeste 0 -- -- 40
2019-02-06 13:00:00 17.5 5 Sur 10 Sur 0 -- -- 40
2019-02-06 12:00:00 16.9 4 Sudeste 9 Sudeste 0 -- -- 60
2019-02-06 11:00:00 15.4 5 Sudeste 9 Este 0 -- -- 67
2019-02-06 10:00:00 12.1 0 Calma 3 Este 0 -- -- 69
2019-02-06 09:00:00 8.4 0 Calma 2 Sudoeste 0 -- -- 81
2019-02-06 08:00:00 7.7 0 Calma 2 Oeste 0 -- -- 81
2019-02-06 07:00:00 7.6 0 Calma 2 Sudoeste 0 -- -- 75
2019-02-06 06:00:00 7.7 0 Calma 2 Oeste 0 -- -- 71
2019-02-06 05:00:00 8 2 Sudoeste 5 Oeste 0 -- -- 67
2019-02-06 04:00:00 8.8 3 Oeste 5 Sudoeste 0 -- -- 89
2019-02-06 03:00:00 9 0 Calma 2 Sudoeste 0 -- -- 93
2019-02-06 02:00:00 9.4 0 Calma 3 Sudoeste 0 -- -- 92
2019-02-06 01:00:00 9.6 0 Calma 5 Noroeste 0 -- -- 91
2019-02-06 00:00:00 9.7 0 Calma 4 Noroeste 0 -- -- 90
2019-02-05 23:00:00 9.4 0 Calma 4 Noroeste 0 -- -- 88
2019-02-05 22:00:00 9.6 0 Calma 4 Oeste 0 -- -- 83
2019-02-05 21:00:00 10.1 0 Calma 2 Sudoeste 0 -- -- 80
2019-02-05 20:00:00 10.8 0 Calma 4 Sudoeste 0 -- -- 71
2019-02-05 19:00:00 12.6 0 Calma 14 Sudoeste 0 -- -- 72
2019-02-05 18:00:00 14 8 Sudoeste 19 Sudoeste 0 -- -- 65
2019-02-05 17:00:00 15.6 11 Sudoeste 19 Sudoeste 0 -- -- 60
2019-02-05 16:00:00 16.5 8 Sudoeste 16 Sudoeste 0 -- -- 56
2019-02-05 15:00:00 16.3 8 Sudoeste 16 Sudoeste 0 -- -- 53
2019-02-05 14:00:00 16 6 Sudoeste 14 Sur 0 -- -- 54
2019-02-05 13:00:00 15.5 5 Sur 15 Sudeste 0 -- -- 55
2019-02-05 12:00:00 14.9 5 Sudeste 12 Este 0 -- -- 58
2019-02-05 11:00:00 14.3 6 Sur 12 Sudeste 0 -- -- 55
2019-02-05 10:00:00 12.5 2 Sur 6 Sudoeste 0 -- -- 63
2019-02-05 09:00:00 8.4 0 Calma 2 Oeste 0 -- -- 67
2019-02-05 08:00:00 8.2 0 Calma 4 Oeste 0 -- -- 68
2019-02-05 07:00:00 7.3 0 Calma 4 Noroeste 0 -- -- 80
2019-02-05 06:00:00 7.1 0 Calma 2 Sudoeste 0 -- -- 80
2019-02-05 05:00:00 7.3 0 Calma 3 Sudoeste 0 -- -- 78
2019-02-05 04:00:00 7.3 0 Calma 2 Sudoeste 0 -- -- 77
2019-02-05 03:00:00 7.8 0 Calma 3 Noroeste 0 -- -- 77
2019-02-05 02:00:00 7.9 0 Calma 4 Noroeste 0 -- -- 74
2019-02-05 01:00:00 8 0 Calma 4 Noroeste 0 -- -- 65
2019-02-05 00:00:00 8 0 Calma 4 Noroeste 0 -- -- 60
2019-02-04 23:00:00 8.4 0 Calma 3 Oeste 0 -- -- 51
2019-02-04 22:00:00 8.7 0 Calma 3 Norte 0 -- -- 49
2019-02-04 21:00:00 8.8 0 Calma 3 Noroeste 0 -- -- 50
2019-02-04 20:00:00 9.4 0 Calma 4 Noroeste 0 -- -- 48
2019-02-04 19:00:00 11.4 3 Oeste 10 Oeste 0 -- -- 48
2019-02-04 18:00:00 13.1 6 Sudoeste 14 Sudoeste 0 -- -- 43
2019-02-04 17:00:00 15.7 6 Sudoeste 12 Oeste 0 -- -- 29
2019-02-04 16:00:00 15.4 6 Sudoeste 13 Sudeste 0 -- -- 25
2019-02-04 15:00:00 15.1 6 Sur 15 Sur 0 -- -- 26
2019-02-04 14:00:00 15 8 Sur 17 Sur 0 -- -- 36
2019-02-04 13:00:00 15 6 Sur 16 Sur 0 -- -- 33
2019-02-04 12:00:00 14.8 5 Sur 14 Sur 0 -- -- 33
2019-02-04 11:00:00 14.3 3 Sur 17 Sudeste 0 -- -- 33
2019-02-04 10:00:00 13.2 3 Norte 15 Sudoeste 0 -- -- 26
2019-02-04 09:00:00 11 6 Noroeste 25 Noroeste 0 -- -- 27
2019-02-04 08:00:00 10.2 6 Noroeste 27 Noroeste 0 -- -- 29
2019-02-04 07:00:00 10.2 13 Noroeste 40 Norte 0 -- -- 31
2019-02-04 06:00:00 9.7 11 Noroeste 29 Noroeste 0 -- -- 35
2019-02-04 05:00:00 9.9 13 Noroeste 28 Noroeste 0 -- -- 37
2019-02-04 04:00:00 9.9 12 Noroeste 35 Noroeste 0 -- -- 37
2019-02-04 03:00:00 9.9 14 Noroeste 36 Norte 0 -- -- 44
2019-02-04 02:00:00 10.2 15 Norte 48 Norte 0 -- -- 45
2019-02-04 01:00:00 10.5 19 Norte 45 Norte 0 -- -- 47
2019-02-04 00:00:00 10.3 15 Norte 39 Noroeste 0 -- -- 44
2019-02-03 23:00:00 11 14 Norte 41 Norte 0 -- -- 35
2019-02-03 22:00:00 11.7 14 Norte 51 Norte 0 -- -- 30
2019-02-03 21:00:00 11.9 12 Norte 36 Noroeste 0 -- -- 28
2019-02-03 20:00:00 12.2 10 Norte 33 Noroeste 0 -- -- 27
2019-02-03 19:00:00 12.4 7 Norte 31 Norte 0 -- -- 27
2019-02-03 18:00:00 13.2 5 Norte 28 Norte 0 -- -- 27
2019-02-03 17:00:00 15.5 6 Norte 26 Norte 0 -- -- 29
2019-02-03 16:00:00 15.5 7 Noroeste 33 Noroeste 0 -- -- 29
2019-02-03 15:00:00 15.7 8 Noroeste 25 Norte 0 -- -- 30
2019-02-03 14:00:00 14.8 8 Noroeste 28 Norte 0 -- -- 32
2019-02-03 13:00:00 14 8 Norte 30 Norte 0 -- -- 36
2019-02-03 12:00:00 12 13 Norte 37 Noroeste 0 -- -- 41
2019-02-03 11:00:00 10.4 14 Noroeste 42 Noroeste 0 -- -- 45
2019-02-03 10:00:00 9.3 13 Noroeste 28 Norte 0 -- -- 48
2019-02-03 09:00:00 8 13 Noroeste 26 Norte 0 -- -- 50
2019-02-03 08:00:00 7 9 Noroeste 21 Noroeste 0 -- -- 51
2019-02-03 07:00:00 7.3 3 Noroeste 23 Noroeste 0 -- -- 49
2019-02-03 06:00:00 8 11 Noroeste 25 Norte 0 -- -- 45
2019-02-03 05:00:00 8.1 9 Noroeste 23 Norte 0 -- -- 47
2019-02-03 04:00:00 8.4 10 Noroeste 22 Oeste 0 -- -- 45
2019-02-03 03:00:00 8.7 10 Noroeste 21 Noroeste 0 -- -- 44
2019-02-03 02:00:00 9.4 7 Norte 24 Norte 0 -- -- 41
2019-02-03 01:00:00 9.8 10 Noroeste 29 Norte 0 -- -- 41
2019-02-03 00:00:00 10.2 8 Norte 26 Norte 0 -- -- 40
2019-02-02 23:00:00 10.6 7 Norte 27 Norte 0 -- -- 41
2019-02-02 22:00:00 10.8 7 Norte 21 Norte 0 -- -- 42
2019-02-02 21:00:00 10.8 4 Norte 21 Nordeste 0 -- -- 45
2019-02-02 20:00:00 11.2 3 Norte 23 Nordeste 0 -- -- 43
2019-02-02 19:00:00 11.9 6 Norte 22 Este 0 -- -- 39
2019-02-02 18:00:00 12.9 6 Noroeste 31 Nordeste 0 -- -- 34
2019-02-02 17:00:00 14.7 12 Norte 33 Nordeste 0 -- -- 33
2019-02-02 16:00:00 15.5 8 Norte 32 Norte 0 -- -- 33
2019-02-02 15:00:00 14.8 10 Norte 33 Noroeste 0 -- -- 36
2019-02-02 14:00:00 14.7 12 Norte 38 Norte 0 -- -- 38
2019-02-02 13:00:00 14.5 9 Norte 35 Noroeste 0 -- -- 39
2019-02-02 12:00:00 13.6 9 Norte 37 Norte 0 -- -- 41
2019-02-02 11:00:00 12.9 10 Norte 33 Noroeste 0 -- -- 43
2019-02-02 10:00:00 12.3 8 Norte 25 Norte 0 -- -- 47
2019-02-02 09:00:00 10.6 4 Norte 16 Norte 0 -- -- 58
2019-02-02 08:00:00 10.5 5 Noroeste 24 Norte 0 -- -- 58
2019-02-02 07:00:00 10.3 4 Norte 21 Norte 0 -- -- 57
2019-02-02 06:00:00 10.5 3 Noroeste 19 Noroeste 0 -- -- 59
2019-02-02 05:00:00 10.9 7 Norte 24 Noroeste 0 -- -- 55
2019-02-02 04:00:00 11.1 6 Noroeste 30 Noroeste 0 -- -- 54
2019-02-02 03:00:00 10.5 4 Noroeste 23 Noroeste 0 -- -- 57
2019-02-02 02:00:00 10.3 6 Norte 28 Noroeste 0 -- -- 58
2019-02-02 01:00:00 10.3 6 Noroeste 28 Norte 0 -- -- 58
2019-02-02 00:00:00 10.2 9 Norte 25 Norte 0 -- -- 60
2019-02-01 23:00:00 10 8 Noroeste 30 Noroeste 0.6 -- -- 67
2019-02-01 22:00:00 12 3 Norte 24 Oeste 0 -- -- 56
2019-02-01 21:00:00 12.5 4 Noroeste 19 Norte 0 -- -- 54
2019-02-01 20:00:00 13 5 Noroeste 20 Oeste 0 -- -- 57
2019-02-01 19:00:00 13.3 3 Oeste 11 Oeste 0 -- -- 54
2019-02-01 18:00:00 13.8 3 Norte 26 Nordeste 0 -- -- 52
2019-02-01 17:00:00 15.6 10 Norte 30 Norte 0 -- -- 48
2019-02-01 16:00:00 17.6 8 Noroeste 26 Oeste 0.2 -- -- 34
2019-02-01 15:00:00 18.1 9 Noroeste 26 Noroeste 0 -- -- 42
2019-02-01 14:00:00 17.7 8 Norte 31 Noroeste 0 -- -- 43
2019-02-01 13:00:00 17.6 8 Norte 32 Norte 0 -- -- 47
2019-02-01 12:00:00 16.4 7 Norte 41 Norte 0 -- -- 63
2019-02-01 11:00:00 13.5 8 Norte 36 Noroeste 0.4 -- -- 81
2019-02-01 10:00:00 13.4 8 Norte 46 Noroeste 7.6 -- -- 89
2019-02-01 09:00:00 14.2 13 Sudoeste 41 Sudoeste 3.2 -- -- 93
2019-02-01 08:00:00 14.2 9 Sudoeste 35 Sudoeste 0.4 -- -- 90
2019-02-01 07:00:00 14.8 13 Oeste 46 Oeste 0.2 -- -- 85
2019-02-01 06:00:00 13.9 13 Sudoeste 46 Sudoeste 1.6 -- -- 95
2019-02-01 05:00:00 13.8 11 Sudoeste 32 Oeste 2 -- -- 95
2019-02-01 04:00:00 13.6 8 Sudoeste 27 Sudoeste 3.4 -- -- 95
2019-02-01 03:00:00 13.9 8 Sudoeste 30 Sudoeste 0.8 -- -- 94
2019-02-01 02:00:00 13.8 9 Sudoeste 28 Oeste 1.6 -- -- 94
2019-02-01 01:00:00 13.4 7 Sur 26 Sudoeste 0.2 -- -- 92
2019-02-01 00:00:00 13.7 14 Sudoeste 33 Oeste 0 -- -- 86
2019-01-31 23:00:00 15.2 8 Sudoeste 32 Sudoeste 0 -- -- 71
2019-01-31 22:00:00 14.8 9 Oeste 44 Oeste 0 -- -- 71
2019-01-31 21:00:00 14.9 9 Sudoeste 29 Oeste 0 -- -- 69
2019-01-31 20:00:00 15.3 9 Oeste 39 Sudoeste 0 -- -- 63
2019-01-31 19:00:00 14.8 5 Sudoeste 23 Oeste 0 -- -- 75
2019-01-31 18:00:00 15.5 10 Sudoeste 26 Sudoeste 0 -- -- 72
2019-01-31 17:00:00 18.1 6 Sudoeste 27 Sudoeste 0 -- -- 59
2019-01-31 16:00:00 18.2 8 Sudoeste 28 Oeste 0 -- -- 59
2019-01-31 15:00:00 17.1 5 Sudoeste 13 Oeste 0 -- -- 66
2019-01-31 14:00:00 16.5 2 Norte 14 Sur 0 -- -- 72
2019-01-31 13:00:00 15.9 4 Sudoeste 10 Sudeste 0 -- -- 75
2019-01-31 12:00:00 16.2 2 Noroeste 14 Sudoeste 0 -- -- 76
2019-01-31 11:00:00 15.4 4 Oeste 13 Sudoeste 0 -- -- 77
2019-01-31 10:00:00 14.5 3 Sudoeste 12 Sudoeste 0 -- -- 78
2019-01-31 09:00:00 12.5 4 Oeste 13 Oeste 0 -- -- 81
2019-01-31 08:00:00 12.3 0 Calma 8 Oeste 0 -- -- 81
2019-01-31 07:00:00 11.7 0 Calma 4 Noroeste 0 -- -- 83
2019-01-31 06:00:00 12 0 Calma 9 Nordeste 0 -- -- 82
2019-01-31 05:00:00 12.2 0 Calma 3 Noroeste 0 -- -- 86
2019-01-31 04:00:00 12.3 0 Calma 3 Norte 0 -- -- 84
2019-01-31 03:00:00 13 0 Calma 3 Nordeste 0 -- -- 69
2019-01-31 02:00:00 13.2 0 Calma 3 Sudoeste 0 -- -- 67
2019-01-31 01:00:00 13.5 0 Calma 8 Sudoeste 0 -- -- 64
2019-01-31 00:00:00 13.6 0 Calma 5 Oeste 0 -- -- 63
2019-01-30 23:00:00 13.6 0 Calma 8 Oeste 0 -- -- 62
2019-01-30 22:00:00 13.9 3 Oeste 10 Noroeste 0 -- -- 61
2019-01-30 21:00:00 13.9 0 Calma 4 Este 0 -- -- 59
2019-01-30 20:00:00 14.6 0 Calma 13 Noroeste 0 -- -- 53
2019-01-30 19:00:00 14.8 5 Norte 26 Nordeste 0 -- -- 51
2019-01-30 18:00:00 16.2 5 Norte 30 Norte 0 -- -- 44
2019-01-30 17:00:00 17.9 5 Norte 23 Noroeste 0 -- -- 41
2019-01-30 16:00:00 18.3 9 Norte 23 Noroeste 0 -- -- 40
2019-01-30 15:00:00 18.3 6 Norte 23 Noroeste 0 -- -- 38
2019-01-30 14:00:00 17.9 8 Norte 32 Norte 0 -- -- 43
2019-01-30 13:00:00 17.1 8 Norte 23 Noroeste 0 -- -- 45
2019-01-30 12:00:00 14.9 8 Norte 27 Norte 0 -- -- 52
2019-01-30 11:00:00 14.7 6 Norte 28 Norte 0 -- -- 54
2019-01-30 10:00:00 14.6 4 Noroeste 21 Norte 0 -- -- 63
2019-01-30 09:00:00 13.7 4 Norte 14 Noroeste 0 -- -- 68
2019-01-30 08:00:00 13.5 3 Norte 10 Noroeste 0 -- -- 69
2019-01-30 07:00:00 13.5 0 Calma 10 Norte 0 -- -- 67
2019-01-30 06:00:00 13.2 2 Noroeste 11 Noroeste 0 -- -- 66
2019-01-30 05:00:00 13.3 4 Sudoeste 17 Noroeste 0 -- -- 62
2019-01-30 04:00:00 13.7 3 Oeste 29 Norte 0 -- -- 59
2019-01-30 03:00:00 13.8 3 Oeste 24 Oeste 0 -- -- 57
2019-01-30 02:00:00 14.5 4 Oeste 19 Sudoeste 0 -- -- 54
2019-01-30 01:00:00 14.8 4 Noroeste 18 Oeste 0 -- -- 56
2019-01-30 00:00:00 14.6 4 Oeste 12 Oeste 0 -- -- 57
2019-01-29 23:00:00 14.4 4 Oeste 11 Oeste 0 -- -- 60
2019-01-29 22:00:00 14.4 5 Oeste 17 Sudoeste 0 -- -- 61
2019-01-29 21:00:00 14.1 0 Calma 16 Sudoeste 0 -- -- 66
2019-01-29 20:00:00 14.3 4 Sudoeste 17 Sudoeste 0 -- -- 65
2019-01-29 19:00:00 15.3 5 Oeste 21 Norte 0 -- -- 52
2019-01-29 18:00:00 15.2 5 Noroeste 21 Noroeste 0 -- -- 53
2019-01-29 17:00:00 15.9 9 Norte 33 Norte 0 -- -- 52
2019-01-29 16:00:00 18.1 6 Norte 24 Noroeste 0 -- -- 45
2019-01-29 15:00:00 18.2 9 Nordeste 26 Nordeste 0 -- -- 44
2019-01-29 14:00:00 18.9 9 Nordeste 24 Nordeste 0 -- -- 40
2019-01-29 13:00:00 17.2 4 Sur 24 Norte 0 -- -- 48
2019-01-29 12:00:00 16.5 6 Norte 25 Noroeste 0 -- -- 50
2019-01-29 11:00:00 14.1 9 Norte 41 Norte 0 -- -- 56
2019-01-29 10:00:00 13.9 9 Norte 34 Noroeste 0 -- -- 60
2019-01-29 09:00:00 12.6 13 Norte 32 Noroeste 0 -- -- 64
2019-01-29 08:00:00 12 4 Nordeste 15 Norte 0 -- -- 64
2019-01-29 07:00:00 13.1 8 Norte 32 Oeste 0 -- -- 58
2019-01-29 06:00:00 13 11 Norte 38 Nordeste 0 -- -- 59
2019-01-29 05:00:00 13.2 9 Norte 28 Noroeste 0 -- -- 59
2019-01-29 04:00:00 13.3 9 Norte 34 Norte 0 -- -- 59
2019-01-29 03:00:00 13.7 12 Norte 30 Norte 0 -- -- 58
2019-01-29 02:00:00 13.8 5 Norte 17 Norte 0 -- -- 58
2019-01-29 01:00:00 13.9 6 Norte 23 Norte 0 -- -- 58
2019-01-29 00:00:00 14 5 Norte 21 Norte 0 -- -- 57
2019-01-28 23:00:00 14 5 Norte 17 Noroeste 0 -- -- 55
2019-01-28 22:00:00 14.4 6 Norte 28 Noroeste 0 -- -- 53
2019-01-28 21:00:00 14.8 9 Norte 30 Norte 0 -- -- 52
2019-01-28 20:00:00 15.1 6 Norte 23 Norte 0 -- -- 50
2019-01-28 19:00:00 15.1 4 Nordeste 19 Norte 0 -- -- 47
2019-01-28 18:00:00 15.5 4 Norte 32 Norte 0 -- -- 44
2019-01-28 17:00:00 16.9 8 Norte 34 Nordeste 0 -- -- 39
2019-01-28 16:00:00 18.1 8 Norte 41 Norte 0 -- -- 36
2019-01-28 15:00:00 17.7 12 Norte 32 Nordeste 0 -- -- 36
2019-01-28 14:00:00 16.7 9 Norte 31 Norte 0 -- -- 38
2019-01-28 13:00:00 15.4 14 Sudeste 30 Nordeste 0 -- -- 40
2019-01-28 12:00:00 14.1 8 Sur 33 Noroeste 0 -- -- 40
2019-01-28 11:00:00 13.4 9 Este 30 Norte 0 -- -- 42
2019-01-28 10:00:00 12.1 10 Oeste 42 Norte 0 -- -- 43
2019-01-28 09:00:00 11.2 11 Noroeste 47 Noroeste 0 -- -- 46
2019-01-28 08:00:00 10.8 7 Norte 26 Norte 0 -- -- 49
2019-01-28 07:00:00 11.1 7 Noroeste 27 Noroeste 0 -- -- 49
2019-01-28 06:00:00 11.3 6 Noroeste 22 Noroeste 0 -- -- 48
2019-01-28 05:00:00 11.7 4 Norte 23 Norte 0 -- -- 46
2019-01-28 04:00:00 12 7 Norte 41 Noroeste 0 -- -- 47
2019-01-28 03:00:00 12.6 17 Norte 42 Norte 0 -- -- 43
2019-01-28 02:00:00 12.7 10 Norte 48 Noroeste 0 -- -- 43
2019-01-28 01:00:00 12.9 12 Norte 39 Noroeste 0 -- -- 43
2019-01-28 00:00:00 12.9 9 Norte 38 Oeste 0 -- -- 44
2019-01-27 23:00:00 13.6 8 Norte 28 Norte 0 -- -- 42
2019-01-27 22:00:00 13.8 6 Norte 31 Noroeste 0 -- -- 45
2019-01-27 21:00:00 14.2 6 Norte 22 Norte 0 -- -- 48
2019-01-27 20:00:00 14.7 7 Norte 32 Noroeste 0 -- -- 49
2019-01-27 19:00:00 15 8 Norte 35 Norte 0 -- -- 51
2019-01-27 18:00:00 15.2 7 Norte 38 Nordeste 0 -- -- 48
2019-01-27 17:00:00 17.6 6 Norte 31 Nordeste 0 -- -- 41
2019-01-27 16:00:00 19.5 7 Norte 31 Nordeste 0 -- -- 34
2019-01-27 15:00:00 20.1 10 Norte 29 Norte 0 -- -- 30
2019-01-27 14:00:00 20.5 8 Nordeste 23 Nordeste 0 -- -- 26
2019-01-27 13:00:00 19.4 5 Sur 27 Nordeste 0 -- -- 47
2019-01-27 12:00:00 18.7 9 Nordeste 19 Este 0 -- -- 43
2019-01-27 11:00:00 16.6 6 Sudoeste 12 Sur 0 -- -- 51
2019-01-27 10:00:00 15 3 Sudeste 6 Sudeste 0 -- -- 57
2019-01-27 09:00:00 12.7 0 Calma 17 Norte 0 -- -- 65
2019-01-27 08:00:00 12.5 6 Norte 21 Noroeste 0 -- -- 61
2019-01-27 07:00:00 13.6 9 Noroeste 28 Norte 0 -- -- 55
2019-01-27 06:00:00 14 5 Noroeste 25 Noroeste 0 -- -- 54
2019-01-27 05:00:00 14.7 10 Noroeste 26 Norte 0 -- -- 50
2019-01-27 04:00:00 15 13 Noroeste 34 Norte 0 -- -- 48
2019-01-27 03:00:00 14.5 15 Noroeste 32 Norte 0 -- -- 49
2019-01-27 02:00:00 14 8 Noroeste 21 Norte 0 -- -- 54
2019-01-27 01:00:00 13.1 5 Noroeste 14 Noroeste 0 -- -- 60
2019-01-27 00:00:00 12.3 3 Sudoeste 13 Noroeste 0 -- -- 70
2019-01-26 23:00:00 10.9 0 Calma 8 Norte 0 -- -- 88
2019-01-26 22:00:00 10.5 0 Calma 5 Sudoeste 0 -- -- 91
2019-01-26 21:00:00 11.2 0 Calma 3 Norte 0 -- -- 88
2019-01-26 20:00:00 12.3 0 Calma 7 Oeste 0 -- -- 85
2019-01-26 19:00:00 13.9 2 Oeste 8 Oeste 0 -- -- 81
2019-01-26 18:00:00 15.5 0 Calma 6 Sur 0 -- -- 77
2019-01-26 17:00:00 17.9 3 Sur 10 Sudeste 0 -- -- 58
2019-01-26 16:00:00 17.8 4 Sudeste 10 Sudeste 0 -- -- 57
2019-01-26 15:00:00 18.1 5 Este 13 Sudeste 0 -- -- 49
2019-01-26 14:00:00 18.7 5 Sudeste 13 Sudeste 0 -- -- 45
2019-01-26 13:00:00 19.1 5 Este 10 Este 0 -- -- 42
2019-01-26 12:00:00 18.9 5 Sudeste 10 Sudeste 0 -- -- 41
2019-01-26 11:00:00 17.7 7 Este 9 Este 0 -- -- 47
2019-01-26 10:00:00 14.3 0 Calma 4 Nordeste 0 -- -- 49
2019-01-26 09:00:00 10.8 0 Calma 4 Sudeste 0 -- -- 59
2019-01-26 08:00:00 10.3 0 Calma 4 Noroeste 0 -- -- 58
2019-01-26 07:00:00 11.1 0 Calma 5 Sudeste 0 -- -- 56
2019-01-26 06:00:00 12.4 0 Calma 6 Noroeste 0 -- -- 48
2019-01-26 05:00:00 13.4 2 Oeste 7 Norte 0 -- -- 46
2019-01-26 04:00:00 15.6 4 Noroeste 20 Norte 0 -- -- 39
2019-01-26 03:00:00 16.5 5 Noroeste 21 Noroeste 0 -- -- 37
2019-01-26 02:00:00 16.9 12 Noroeste 27 Noroeste 0 -- -- 38
2019-01-26 01:00:00 16.8 12 Noroeste 31 Norte 0 -- -- 39
2019-01-26 00:00:00 17 13 Noroeste 35 Noroeste 0 -- -- 39
2019-01-25 23:00:00 17.3 14 Noroeste 40 Norte 0 -- -- 39
2019-01-25 22:00:00 17.8 14 Norte 37 Noroeste 0 -- -- 38
2019-01-25 21:00:00 17.6 13 Norte 34 Noroeste 0 -- -- 40
2019-01-25 20:00:00 18.2 10 Norte 26 Noroeste 0 -- -- 39
2019-01-25 19:00:00 19.2 10 Norte 24 Norte 0 -- -- 42
2019-01-25 18:00:00 20.5 6 Norte 25 Noroeste 0 -- -- 36
2019-01-25 17:00:00 23.2 8 Norte 28 Oeste 0 -- -- 32
2019-01-25 16:00:00 22.7 14 Noroeste 31 Norte 0 -- -- 34
2019-01-25 15:00:00 23.2 10 Noroeste 32 Noroeste 0 -- -- 35
2019-01-25 14:00:00 22.2 13 Noroeste 36 Noroeste 0 -- -- 40
2019-01-25 13:00:00 22.1 10 Noroeste 36 Norte 0 -- -- 41
2019-01-25 12:00:00 19.6 17 Noroeste 36 Norte 0 -- -- 47
2019-01-25 11:00:00 18.2 14 Noroeste 40 Noroeste 0 -- -- 50
2019-01-25 10:00:00 16.8 13 Noroeste 45 Norte 0 -- -- 55
2019-01-25 09:00:00 15.3 15 Noroeste 39 Noroeste 0 -- -- 60
2019-01-25 08:00:00 15.3 17 Noroeste 39 Noroeste 0 -- -- 59
2019-01-25 07:00:00 15.6 20 Noroeste 43 Noroeste 0 -- -- 58
2019-01-25 06:00:00 15.6 13 Noroeste 33 Noroeste 0 -- -- 59
2019-01-25 05:00:00 15.1 15 Noroeste 38 Norte 0 -- -- 62
2019-01-25 04:00:00 15.7 15 Noroeste 40 Norte 0 -- -- 59
2019-01-25 03:00:00 15.4 15 Noroeste 47 Noroeste 0 -- -- 60
2019-01-25 02:00:00 15.7 19 Noroeste 43 Noroeste 0 -- -- 60
2019-01-25 01:00:00 15.8 19 Noroeste 50 Noroeste 0 -- -- 59
2019-01-25 00:00:00 15.8 17 Noroeste 41 Norte 0 -- -- 58
2019-01-24 23:00:00 15.6 18 Noroeste 40 Norte 0 -- -- 58
2019-01-24 22:00:00 15.8 18 Noroeste 40 Noroeste 0 -- -- 57
2019-01-24 21:00:00 15.6 13 Noroeste 37 Noroeste 0 -- -- 56
2019-01-24 20:00:00 16 17 Noroeste 41 Norte 0 -- -- 53
2019-01-24 19:00:00 16.3 12 Norte 37 Norte 0 -- -- 53
2019-01-24 18:00:00 16.9 16 Norte 45 Noroeste 0 -- -- 52
2019-01-24 17:00:00 18.9 11 Norte 45 Norte 0 -- -- 46
2019-01-24 16:00:00 19.9 14 Norte 36 Noroeste 0 -- -- 43
2019-01-24 15:00:00 19.3 8 Norte 39 Norte 0 -- -- 45
2019-01-24 14:00:00 18.6 16 Norte 49 Noroeste 0 -- -- 47
2019-01-24 13:00:00 18.4 13 Norte 47 Norte 0 -- -- 48
2019-01-24 12:00:00 17.6 12 Norte 44 Noroeste 0 -- -- 51
2019-01-24 11:00:00 16.4 12 Nordeste 35 Nordeste 0 -- -- 55
2019-01-24 10:00:00 15.8 7 Norte 36 Norte 0 -- -- 56
2019-01-24 09:00:00 14.5 9 Norte 32 Norte 0 -- -- 59
2019-01-24 08:00:00 14.5 10 Norte 23 Nordeste 0 -- -- 60
2019-01-24 07:00:00 14.5 4 Norte 28 Norte 0 -- -- 60
2019-01-24 06:00:00 14.5 9 Norte 30 Noroeste 0 -- -- 60
2019-01-24 05:00:00 14.5 5 Norte 27 Nordeste 0 -- -- 60
2019-01-24 04:00:00 14.7 4 Norte 27 Noroeste 0 -- -- 59
2019-01-24 03:00:00 15.1 6 Sur 22 Oeste 0 -- -- 57
2019-01-24 02:00:00 14.9 7 Sur 30 Este 0 -- -- 60
2019-01-24 01:00:00 15 7 Norte 28 Nordeste 0 -- -- 56
2019-01-24 00:00:00 15 8 Norte 27 Noroeste 0 -- -- 55
2019-01-23 23:00:00 15.3 6 Oeste 26 Noroeste 0 -- -- 54
2019-01-23 22:00:00 15.6 6 Noroeste 28 Sudoeste 0 -- -- 53
2019-01-23 21:00:00 15.5 6 Noroeste 26 Noroeste 0 -- -- 53
2019-01-23 20:00:00 15.6 8 Noroeste 22 Norte 0 -- -- 51
2019-01-23 19:00:00 15.5 5 Noroeste 23 Sudoeste 0 -- -- 51
2019-01-23 18:00:00 15.4 4 Norte 23 Oeste 0 -- -- 53
2019-01-23 17:00:00 15.4 6 Noroeste 20 Noroeste 0 -- -- 54
2019-01-23 16:00:00 15.3 5 Norte 21 Noroeste 0 -- -- 53
2019-01-23 15:00:00 15.9 6 Norte 24 Nordeste 0 -- -- 49
2019-01-23 14:00:00 14.6 4 Noroeste 26 Norte 0 -- -- 53
2019-01-23 13:00:00 14 6 Nordeste 25 Noroeste 0 -- -- 57
2019-01-23 12:00:00 13.5 5 Noroeste 24 Norte 0 -- -- 59
2019-01-23 11:00:00 13 5 Norte 24 Noroeste 0 -- -- 59
2019-01-23 10:00:00 13.3 5 Norte 23 Nordeste 0 -- -- 58
2019-01-23 09:00:00 11.6 7 Norte 24 Norte 0 -- -- 61
2019-01-23 08:00:00 11.4 8 Norte 30 Norte 0 -- -- 61
2019-01-23 07:00:00 11.3 5 Norte 24 Noroeste 0 -- -- 61
2019-01-23 06:00:00 11.8 6 Norte 32 Norte 0 -- -- 59
2019-01-23 05:00:00 12.2 3 Noroeste 16 Oeste 0 -- -- 59
2019-01-23 04:00:00 12.1 3 Noroeste 15 Sur 0 -- -- 61
2019-01-23 03:00:00 12.2 5 Oeste 21 Oeste 0 -- -- 64
2019-01-23 02:00:00 12.4 4 Sudoeste 17 Sudoeste 0 -- -- 67
2019-01-23 01:00:00 13.3 6 Oeste 17 Oeste 0 -- -- 57
2019-01-23 00:00:00 13.3 6 Norte 22 Oeste 0 -- -- 57
2019-01-22 23:00:00 12.9 4 Oeste 18 Sur 0 -- -- 55
2019-01-22 22:00:00 12.1 4 Sur 14 Oeste 0 -- -- 54
2019-01-22 21:00:00 12.4 3 Sudoeste 22 Oeste 0 -- -- 52
2019-01-22 20:00:00 12.8 6 Sudeste 24 Sudoeste 0 -- -- 49
2019-01-22 19:00:00 12.7 3 Sudeste 21 Norte 0 -- -- 50
2019-01-22 18:00:00 12.8 4 Norte 25 Nordeste 0 -- -- 47
2019-01-22 17:00:00 13.3 9 Norte 29 Norte 0 -- -- 44
2019-01-22 16:00:00 16.1 8 Norte 32 Norte 0 -- -- 36
2019-01-22 15:00:00 17.4 6 Noroeste 23 Oeste 0 -- -- 29
2019-01-22 14:00:00 16.8 7 Noroeste 28 Oeste 0 -- -- 34
2019-01-22 13:00:00 15.4 6 Nordeste 18 Noroeste 0 -- -- 38
2019-01-22 12:00:00 13.6 5 Norte 26 Norte 0 -- -- 41
2019-01-22 11:00:00 12.4 6 Norte 19 Nordeste 0 -- -- 45
2019-01-22 10:00:00 11.7 4 Este 22 Noroeste 0 -- -- 49
2019-01-22 09:00:00 10.6 4 Norte 21 Noroeste 0 -- -- 52
2019-01-22 08:00:00 10.1 12 Noroeste 24 Noroeste 0 -- -- 51
2019-01-22 07:00:00 9.8 5 Noroeste 17 Norte 0 -- -- 52
2019-01-22 06:00:00 10 3 Noroeste 14 Oeste 0 -- -- 51
2019-01-22 05:00:00 10.2 5 Noroeste 22 Noroeste 0 -- -- 51
2019-01-22 04:00:00 10.7 9 Noroeste 28 Noroeste 0 -- -- 51
2019-01-22 03:00:00 11.2 14 Noroeste 30 Noroeste 0 -- -- 49
2019-01-22 02:00:00 11.6 8 Norte 24 Norte 0 -- -- 47
2019-01-22 01:00:00 11.3 7 Norte 20 Norte 0 -- -- 48
2019-01-22 00:00:00 11.6 8 Noroeste 31 Noroeste 0 -- -- 48
2019-01-21 23:00:00 12.4 13 Norte 28 Norte 0 -- -- 44
2019-01-21 22:00:00 12.2 10 Norte 30 Norte 0 -- -- 45
2019-01-21 21:00:00 12.5 10 Norte 26 Norte 0 -- -- 42
2019-01-21 20:00:00 12.3 8 Noroeste 21 Noroeste 0 -- -- 45
2019-01-21 19:00:00 13.4 8 Norte 24 Noroeste 0 -- -- 40
2019-01-21 18:00:00 14.3 6 Norte 28 Norte 0 -- -- 38
2019-01-21 17:00:00 16.5 6 Norte 23 Nordeste 0 -- -- 33
2019-01-21 16:00:00 17.5 7 Norte 24 Norte 0 -- -- 32
2019-01-21 15:00:00 17.9 6 Norte 26 Noroeste 0 -- -- 32
2019-01-21 14:00:00 18 9 Norte 30 Noroeste 0 -- -- 31
2019-01-21 13:00:00 17.4 6 Norte 27 Norte 0 -- -- 35
2019-01-21 12:00:00 16.7 7 Norte 24 Norte 0 -- -- 34
2019-01-21 11:00:00 14.7 6 Norte 29 Norte 0 -- -- 38
2019-01-21 10:00:00 12.9 10 Norte 31 Noroeste 0 -- -- 43
2019-01-21 09:00:00 11.7 8 Norte 36 Norte 0 -- -- 46
2019-01-21 08:00:00 9.8 15 Noroeste 33 Noroeste 0 -- -- 59
2019-01-21 07:00:00 10.1 14 Noroeste 31 Noroeste 0 -- -- 57
2019-01-21 06:00:00 10.6 14 Noroeste 34 Noroeste 0 -- -- 55
2019-01-21 05:00:00 10.4 15 Noroeste 29 Noroeste 0 -- -- 59
2019-01-21 04:00:00 10.2 11 Noroeste 30 Noroeste 0 -- -- 62
2019-01-21 03:00:00 10.6 13 Noroeste 29 Noroeste 0 -- -- 61
2019-01-21 02:00:00 11.2 12 Noroeste 30 Noroeste 0 -- -- 61
2019-01-21 01:00:00 11.8 12 Noroeste 30 Noroeste 0 -- -- 59
2019-01-21 00:00:00 12.1 10 Noroeste 33 Noroeste 0 -- -- 61
2019-01-20 23:00:00 12.5 9 Noroeste 29 Norte 0 -- -- 61
2019-01-20 22:00:00 12.7 11 Noroeste 23 Noroeste 0 -- -- 63
2019-01-20 21:00:00 13.1 5 Noroeste 22 Norte 0 -- -- 59
2019-01-20 20:00:00 13.2 5 Noroeste 20 Noroeste 0 -- -- 64
2019-01-20 19:00:00 14.2 7 Norte 21 Noroeste 0 -- -- 60
2019-01-20 18:00:00 14.7 4 Norte 22 Noroeste 0 -- -- 64
2019-01-20 17:00:00 15.6 10 Norte 37 Noroeste 0 -- -- 58
2019-01-20 16:00:00 16.5 9 Norte 29 Noroeste 0 -- -- 55
2019-01-20 15:00:00 16.6 7 Norte 32 Noroeste 0 -- -- 55
2019-01-20 14:00:00 16 6 Norte 36 Noroeste 0 -- -- 58
2019-01-20 13:00:00 16.7 12 Norte 32 Nordeste 0 -- -- 59
2019-01-20 12:00:00 16 7 Norte 33 Noroeste 0 -- -- 65
2019-01-20 11:00:00 15 8 Norte 26 Noroeste 0 -- -- 75
2019-01-20 10:00:00 12.7 0 Calma 10 Norte 0 -- -- 88
2019-01-20 09:00:00 12.3 4 Noroeste 11 Noroeste 0.4 -- -- 84
2019-01-20 08:00:00 11.4 2 Noroeste 8 Oeste 0 -- -- 80
2019-01-20 07:00:00 11.4 2 Oeste 17 Norte 0 -- -- 81
2019-01-20 06:00:00 11.6 4 Norte 14 Norte 0 -- -- 83
2019-01-20 05:00:00 11.5 5 Norte 15 Norte 0 -- -- 90
2019-01-20 04:00:00 11.3 7 Noroeste 16 Noroeste 0 -- -- 95
2019-01-20 03:00:00 10.8 0 Calma 14 Noroeste 0 -- -- 94
2019-01-20 02:00:00 11.5 0 Calma 10 Nordeste 0.2 -- -- 94
2019-01-20 01:00:00 11.7 0 Calma 4 Noroeste 1.4 -- -- 93
2019-01-20 00:00:00 11.7 0 Calma 3 Norte 0.2 -- -- 90
2019-01-19 23:00:00 11.9 0 Calma 6 Oeste 0 -- -- 82
2019-01-19 22:00:00 11.9 4 Oeste 9 Sudoeste 0 -- -- 81
2019-01-19 21:00:00 11.3 2 Oeste 5 Sudoeste 0 -- -- 82
2019-01-19 20:00:00 12.2 0 Calma 4 Oeste 0 -- -- 77
2019-01-19 19:00:00 12.7 2 Noroeste 8 Noroeste 0 -- -- 75
2019-01-19 18:00:00 13.4 0 Calma 8 Norte 0 -- -- 72
2019-01-19 17:00:00 14 0 Calma 14 Norte 0 -- -- 67
2019-01-19 16:00:00 13.9 3 Norte 12 Norte 0 -- -- 65
2019-01-19 15:00:00 13.9 3 Noroeste 23 Noroeste 0 -- -- 65
2019-01-19 14:00:00 14.3 7 Norte 25 Norte 0 -- -- 64
2019-01-19 13:00:00 14.9 8 Norte 30 Norte 0 -- -- 64
2019-01-19 12:00:00 12.7 13 Noroeste 28 Noroeste 0 -- -- 77
2019-01-19 11:00:00 10.7 9 Noroeste 23 Noroeste 0 -- -- 88
2019-01-19 10:00:00 10.3 0 Calma 10 Nordeste 0 -- -- 88
2019-01-19 09:00:00 10.5 0 Calma 5 Nordeste 0 -- -- 83
2019-01-19 08:00:00 11.3 0 Calma 10 Norte 0 -- -- 65
2019-01-19 07:00:00 11.4 3 Noroeste 16 Norte 0 -- -- 60
2019-01-19 06:00:00 11.5 8 Noroeste 20 Norte 0 -- -- 59
2019-01-19 05:00:00 12.1 8 Noroeste 20 Noroeste 0 -- -- 52
2019-01-19 04:00:00 12.2 7 Noroeste 19 Norte 0 -- -- 49
2019-01-19 03:00:00 12.1 6 Norte 19 Norte 0 -- -- 50
2019-01-19 02:00:00 11.8 5 Norte 17 Norte 0 -- -- 52
2019-01-19 01:00:00 11.9 2 Oeste 10 Norte 0 -- -- 53
2019-01-19 00:00:00 12.1 2 Noroeste 15 Noroeste 0 -- -- 49